BWA616 SYCJ-CYYZ
Flight info
| Callsign | BWA616 |
|---|---|
| Flight time | N/A |
| Altitude | 30000 |
| Route | VOKAV DCT ANADA L467 GESSO Y354 DONQU DCT LNHOM/M077F300 L452 OXANA/N0459F300 AR8 ECG DCT SCOOB Q119 EMI J61 PSB DCT WOZEE LINNG3 |
| Aircraft | B38M/M-MSDE3FGHIRWYLB1/HB1 |
Departure
| Time | 2026-04-25 14:12 |
|---|---|
| Airport | Cheddi Jagan International Airport (SYCJ) |
Arrival
| Time | N/A |
|---|---|
| Airport | Toronto Pearson International Airport (CYYZ) |
| Time | Latitude | Longitude | Altitude | Speed | Heading |
|---|---|---|---|---|---|
| 2026-04-25 12:55 | 6.50356 | -58.25216 | 107 ft | 0 kts | 316° |
| 2026-04-25 13:53 | 6.50351 | -58.25211 | 107 ft | 4 kts | 314° |
| 2026-04-25 13:53 | 6.50336 | -58.25190 | 107 ft | 4 kts | 287° |
| 2026-04-25 13:54 | 6.50336 | -58.25166 | 107 ft | 4 kts | 241° |
| 2026-04-25 13:54 | 6.50345 | -58.25154 | 107 ft | 1 kts | 225° |
| 2026-04-25 13:54 | 6.50347 | -58.25153 | 107 ft | 0 kts | 225° |
| 2026-04-25 14:06 | 6.50342 | -58.25158 | 107 ft | 4 kts | 227° |
| 2026-04-25 14:07 | 6.50301 | -58.25200 | 106 ft | 14 kts | 225° |
| 2026-04-25 14:07 | 6.50221 | -58.25264 | 105 ft | 12 kts | 178° |
| 2026-04-25 14:07 | 6.50144 | -58.25199 | 106 ft | 18 kts | 134° |
| 2026-04-25 14:07 | 6.50053 | -58.25218 | 107 ft | 17 kts | 226° |
| 2026-04-25 14:08 | 6.49951 | -58.25321 | 107 ft | 25 kts | 225° |
| 2026-04-25 14:08 | 6.49805 | -58.25465 | 107 ft | 34 kts | 224° |
| 2026-04-25 14:08 | 6.49636 | -58.25633 | 107 ft | 31 kts | 225° |
| 2026-04-25 14:08 | 6.49487 | -58.25783 | 106 ft | 31 kts | 225° |
| 2026-04-25 14:09 | 6.49336 | -58.25932 | 106 ft | 30 kts | 223° |
| 2026-04-25 14:09 | 6.49188 | -58.26082 | 106 ft | 30 kts | 224° |
| 2026-04-25 14:09 | 6.49055 | -58.26213 | 105 ft | 23 kts | 226° |
| 2026-04-25 14:09 | 6.48988 | -58.26281 | 107 ft | 20 kts | 225° |
| 2026-04-25 14:10 | 6.48850 | -58.26392 | 105 ft | 17 kts | 195° |
| 2026-04-25 14:10 | 6.48753 | -58.26440 | 105 ft | 14 kts | 219° |
| 2026-04-25 14:10 | 6.48727 | -58.26477 | 107 ft | 0 kts | 270° |
| 2026-04-25 14:10 | 6.48730 | -58.26481 | 107 ft | 3 kts | 305° |
| 2026-04-25 14:11 | 6.48771 | -58.26486 | 107 ft | 8 kts | 17° |
| 2026-04-25 14:11 | 6.48814 | -58.26452 | 106 ft | 8 kts | 46° |
| 2026-04-25 14:11 | 6.48877 | -58.26388 | 105 ft | 26 kts | 45° |
| 2026-04-25 14:11 | 6.49177 | -58.26089 | 107 ft | 94 kts | 44° |
| 2026-04-25 14:12 | 6.49786 | -58.25483 | 107 ft | 150 kts | 45° |
| 2026-04-25 14:12 | 6.50635 | -58.24628 | 225 ft | 181 kts | 46° |
| 2026-04-25 14:12 | 6.51554 | -58.23720 | 771 ft | 193 kts | 45° |
| 2026-04-25 14:12 | 6.52536 | -58.22786 | 1502 ft | 194 kts | 44° |
| 2026-04-25 14:13 | 6.53586 | -58.21819 | 1937 ft | 215 kts | 44° |
| 2026-04-25 14:13 | 6.54761 | -58.20752 | 2276 ft | 241 kts | 44° |
| 2026-04-25 14:13 | 6.56008 | -58.19631 | 3152 ft | 239 kts | 44° |
| 2026-04-25 14:13 | 6.57278 | -58.18548 | 3853 ft | 250 kts | 34° |
| 2026-04-25 14:14 | 6.59006 | -58.18058 | 4412 ft | 270 kts | 358° |
| 2026-04-25 14:14 | 6.60800 | -58.18653 | 5193 ft | 279 kts | 330° |
| 2026-04-25 14:14 | 6.62338 | -58.19899 | 5949 ft | 287 kts | 319° |
| 2026-04-25 14:14 | 6.63740 | -58.21361 | 6730 ft | 292 kts | 314° |
| 2026-04-25 14:15 | 6.65209 | -58.22772 | 7487 ft | 293 kts | 328° |
| 2026-04-25 14:15 | 6.65767 | -58.23130 | 7737 ft | 292 kts | 334° |
| 2026-04-25 14:15 | 6.68735 | -58.24827 | 8927 ft | 299 kts | 330° |
| 2026-04-25 14:15 | 6.70495 | -58.25980 | 9617 ft | 303 kts | 328° |
| 2026-04-25 14:16 | 6.72217 | -58.27247 | 10261 ft | 311 kts | 325° |
| 2026-04-25 14:16 | 6.74009 | -58.28594 | 10550 ft | 330 kts | 325° |
| 2026-04-25 14:16 | 6.75908 | -58.30014 | 10763 ft | 350 kts | 325° |
| 2026-04-25 14:16 | 6.77888 | -58.31490 | 10914 ft | 369 kts | 325° |
| 2026-04-25 14:17 | 6.80000 | -58.33065 | 11126 ft | 384 kts | 325° |
| 2026-04-25 14:17 | 6.82184 | -58.34691 | 11407 ft | 396 kts | 325° |
| 2026-04-25 14:17 | 6.84421 | -58.36358 | 11770 ft | 404 kts | 325° |
| 2026-04-25 14:17 | 6.86694 | -58.38051 | 12246 ft | 407 kts | 325° |
| 2026-04-25 14:18 | 6.88987 | -58.39742 | 12724 ft | 410 kts | 327° |
| 2026-04-25 14:18 | 6.91371 | -58.41346 | 13210 ft | 412 kts | 328° |
| 2026-04-25 14:18 | 6.93789 | -58.42919 | 13663 ft | 415 kts | 329° |
| 2026-04-25 14:18 | 6.96239 | -58.44479 | 14107 ft | 418 kts | 329° |
| 2026-04-25 14:19 | 6.98706 | -58.46045 | 14567 ft | 420 kts | 329° |
| 2026-04-25 14:19 | 7.01152 | -58.47596 | 14974 ft | 422 kts | 329° |
| 2026-04-25 14:19 | 7.03653 | -58.49179 | 15371 ft | 425 kts | 329° |
| 2026-04-25 14:19 | 7.06158 | -58.50764 | 15758 ft | 427 kts | 329° |
| 2026-04-25 14:20 | 7.08690 | -58.52356 | 16123 ft | 429 kts | 330° |
| 2026-04-25 14:20 | 7.09561 | -58.52880 | 16238 ft | 430 kts | 331° |
| 2026-04-25 14:20 | 7.13882 | -58.55409 | 16814 ft | 434 kts | 331° |
| 2026-04-25 14:20 | 7.16501 | -58.56936 | 17151 ft | 436 kts | 331° |
| 2026-04-25 14:21 | 7.19159 | -58.58338 | 17449 ft | 437 kts | 336° |
| 2026-04-25 14:21 | 7.21969 | -58.59547 | 17764 ft | 439 kts | 339° |
| 2026-04-25 14:21 | 7.24805 | -58.60713 | 18063 ft | 441 kts | 339° |
| 2026-04-25 14:21 | 7.27658 | -58.61882 | 18368 ft | 443 kts | 339° |
| 2026-04-25 14:22 | 7.30515 | -58.63051 | 18664 ft | 444 kts | 339° |
| 2026-04-25 14:22 | 7.33387 | -58.64224 | 18951 ft | 446 kts | 339° |
| 2026-04-25 14:22 | 7.36279 | -58.65402 | 19222 ft | 447 kts | 339° |
| 2026-04-25 14:22 | 7.39106 | -58.66624 | 19499 ft | 449 kts | 337° |
| 2026-04-25 14:23 | 7.41962 | -58.67900 | 19743 ft | 450 kts | 337° |
| 2026-04-25 14:23 | 7.44829 | -58.69180 | 19999 ft | 451 kts | 337° |
| 2026-04-25 14:23 | 7.47709 | -58.70465 | 20237 ft | 452 kts | 337° |
| 2026-04-25 14:23 | 7.50593 | -58.71752 | 20465 ft | 454 kts | 337° |
| 2026-04-25 14:24 | 7.53512 | -58.73017 | 20702 ft | 454 kts | 339° |
| 2026-04-25 14:24 | 7.56454 | -58.74203 | 20916 ft | 455 kts | 340° |
| 2026-04-25 14:24 | 7.59407 | -58.75375 | 21119 ft | 457 kts | 334° |
| 2026-04-25 14:24 | 7.62010 | -58.77148 | 21364 ft | 459 kts | 318° |
| 2026-04-25 14:25 | 7.64345 | -58.79356 | 21527 ft | 461 kts | 319° |
| 2026-04-25 14:25 | 7.66752 | -58.81501 | 21718 ft | 462 kts | 320° |
| 2026-04-25 14:25 | 7.69180 | -58.83645 | 21921 ft | 463 kts | 320° |
| 2026-04-25 14:25 | 7.69964 | -58.84334 | 21995 ft | 463 kts | 320° |
| 2026-04-25 14:26 | 7.74052 | -58.87926 | 22328 ft | 465 kts | 320° |
| 2026-04-25 14:26 | 7.76457 | -58.90039 | 22519 ft | 466 kts | 320° |
| 2026-04-25 14:26 | 7.78908 | -58.92193 | 22701 ft | 467 kts | 320° |
| 2026-04-25 14:26 | 7.81369 | -58.94356 | 22879 ft | 468 kts | 320° |
| 2026-04-25 14:27 | 7.83829 | -58.96517 | 23062 ft | 469 kts | 320° |
| 2026-04-25 14:27 | 7.86293 | -58.98685 | 23241 ft | 469 kts | 320° |
| 2026-04-25 14:27 | 7.88729 | -59.00826 | 23415 ft | 470 kts | 320° |
| 2026-04-25 14:27 | 7.91200 | -59.02998 | 23574 ft | 471 kts | 320° |
| 2026-04-25 14:28 | 7.93673 | -59.05174 | 23738 ft | 472 kts | 320° |
| 2026-04-25 14:28 | 7.96154 | -59.07356 | 23901 ft | 473 kts | 320° |
| 2026-04-25 14:28 | 7.98635 | -59.09539 | 24071 ft | 474 kts | 320° |
| 2026-04-25 14:28 | 8.01129 | -59.11733 | 24231 ft | 475 kts | 320° |
| 2026-04-25 14:29 | 8.03627 | -59.13932 | 24362 ft | 477 kts | 320° |
| 2026-04-25 14:29 | 8.06099 | -59.16109 | 24519 ft | 477 kts | 320° |
| 2026-04-25 14:29 | 8.08608 | -59.18317 | 24657 ft | 478 kts | 320° |
| 2026-04-25 14:29 | 8.11124 | -59.20533 | 24798 ft | 480 kts | 319° |
| 2026-04-25 14:30 | 8.13641 | -59.22749 | 24934 ft | 481 kts | 319° |
| 2026-04-25 14:30 | 8.18696 | -59.27202 | 25197 ft | 483 kts | 319° |
| 2026-04-25 14:30 | 8.21200 | -59.29409 | 25335 ft | 484 kts | 319° |
| 2026-04-25 14:31 | 8.23745 | -59.31652 | 25466 ft | 486 kts | 319° |
| 2026-04-25 14:31 | 8.26294 | -59.33899 | 25608 ft | 487 kts | 319° |
| 2026-04-25 14:31 | 8.28916 | -59.36061 | 25746 ft | 487 kts | 327° |
| 2026-04-25 14:31 | 8.31860 | -59.37761 | 25878 ft | 488 kts | 333° |
| 2026-04-25 14:32 | 8.34885 | -59.39326 | 25972 ft | 489 kts | 333° |
| 2026-04-25 14:32 | 8.37931 | -59.40882 | 26107 ft | 490 kts | 334° |
| 2026-04-25 14:32 | 8.40945 | -59.42438 | 26219 ft | 492 kts | 331° |
| 2026-04-25 14:32 | 8.43889 | -59.44236 | 26346 ft | 493 kts | 328° |
| 2026-04-25 14:33 | 8.46760 | -59.46131 | 26468 ft | 494 kts | 327° |
| 2026-04-25 14:33 | 8.49630 | -59.48054 | 26605 ft | 495 kts | 327° |
| 2026-04-25 14:33 | 8.52504 | -59.49976 | 26911 ft | 491 kts | 327° |
| 2026-04-25 14:33 | 8.55334 | -59.51864 | 27403 ft | 485 kts | 327° |
| 2026-04-25 14:34 | 8.58163 | -59.53741 | 27507 ft | 488 kts | 327° |
| 2026-04-25 14:34 | 8.60960 | -59.55635 | 27643 ft | 490 kts | 324° |
| 2026-04-25 14:34 | 8.63755 | -59.57617 | 27813 ft | 491 kts | 325° |
| 2026-04-25 14:34 | 8.66566 | -59.59592 | 27974 ft | 492 kts | 325° |
| 2026-04-25 14:35 | 8.69386 | -59.61568 | 28141 ft | 493 kts | 325° |
| 2026-04-25 14:35 | 8.72221 | -59.63552 | 28280 ft | 495 kts | 325° |
| 2026-04-25 14:35 | 8.75054 | -59.65535 | 28440 ft | 496 kts | 325° |
| 2026-04-25 14:35 | 8.77897 | -59.67526 | 28618 ft | 497 kts | 325° |
| 2026-04-25 14:36 | 8.80737 | -59.69515 | 28854 ft | 496 kts | 325° |
| 2026-04-25 14:36 | 8.83540 | -59.71478 | 29081 ft | 496 kts | 324° |
| 2026-04-25 14:36 | 8.86381 | -59.73468 | 29306 ft | 495 kts | 324° |
| 2026-04-25 14:36 | 8.89214 | -59.75453 | 29541 ft | 495 kts | 324° |
| 2026-04-25 14:37 | 8.92048 | -59.77439 | 29784 ft | 495 kts | 324° |
| 2026-04-25 14:37 | 8.93921 | -59.78752 | 29943 ft | 494 kts | 324° |
| 2026-04-25 14:37 | 9.00502 | -59.83366 | 29983 ft | 492 kts | 324° |
| 2026-04-25 14:38 | 9.05192 | -59.86656 | 30224 ft | 492 kts | 324° |
| 2026-04-25 14:38 | 9.08009 | -59.88631 | 30432 ft | 493 kts | 324° |
| 2026-04-25 14:38 | 9.10822 | -59.90606 | 30678 ft | 492 kts | 324° |
| 2026-04-25 14:39 | 9.13640 | -59.92583 | 30914 ft | 492 kts | 324° |
| 2026-04-25 14:39 | 9.16456 | -59.94561 | 31181 ft | 491 kts | 324° |
| 2026-04-25 14:39 | 9.19265 | -59.96532 | 31410 ft | 491 kts | 324° |
| 2026-04-25 14:39 | 9.22045 | -59.98485 | 31636 ft | 491 kts | 324° |
| 2026-04-25 14:40 | 9.24847 | -60.00453 | 31884 ft | 490 kts | 324° |
| 2026-04-25 14:40 | 9.27650 | -60.02422 | 32118 ft | 489 kts | 324° |
| 2026-04-25 14:40 | 9.30451 | -60.04391 | 32335 ft | 489 kts | 324° |
| 2026-04-25 14:40 | 9.33251 | -60.06358 | 32559 ft | 489 kts | 324° |
| 2026-04-25 14:41 | 9.36050 | -60.08326 | 32782 ft | 489 kts | 324° |
| 2026-04-25 14:41 | 9.38855 | -60.10298 | 33009 ft | 489 kts | 324° |
| 2026-04-25 14:41 | 9.41613 | -60.12237 | 33225 ft | 489 kts | 323° |
| 2026-04-25 14:41 | 9.44403 | -60.14200 | 33446 ft | 488 kts | 323° |
| 2026-04-25 14:42 | 9.47199 | -60.16167 | 33590 ft | 490 kts | 323° |
| 2026-04-25 14:42 | 9.49056 | -60.17473 | 33709 ft | 490 kts | 323° |
| 2026-04-25 14:42 | 9.52796 | -60.20105 | 33964 ft | 488 kts | 323° |
| 2026-04-25 14:42 | 9.55594 | -60.22075 | 34007 ft | 490 kts | 323° |
| 2026-04-25 14:43 | 9.61192 | -60.26017 | 33988 ft | 488 kts | 323° |
| 2026-04-25 14:43 | 9.66745 | -60.29929 | 33992 ft | 488 kts | 323° |
| 2026-04-25 14:44 | 9.72330 | -60.33865 | 33990 ft | 488 kts | 323° |
| 2026-04-25 14:44 | 9.77908 | -60.37797 | 33991 ft | 488 kts | 323° |
| 2026-04-25 14:45 | 9.83507 | -60.41746 | 33989 ft | 488 kts | 323° |
| 2026-04-25 14:45 | 9.89090 | -60.45686 | 33989 ft | 488 kts | 323° |
| 2026-04-25 14:46 | 9.94636 | -60.49601 | 33989 ft | 489 kts | 323° |
| 2026-04-25 14:46 | 10.00221 | -60.53545 | 33989 ft | 488 kts | 323° |
| 2026-04-25 14:47 | 10.04890 | -60.56843 | 33989 ft | 488 kts | 323° |
| 2026-04-25 14:47 | 10.11384 | -60.61434 | 33990 ft | 489 kts | 323° |
| 2026-04-25 14:48 | 10.16964 | -60.65379 | 33990 ft | 489 kts | 323° |
| 2026-04-25 14:48 | 10.22518 | -60.69308 | 33991 ft | 489 kts | 323° |
| 2026-04-25 14:49 | 10.28108 | -60.73265 | 33991 ft | 489 kts | 323° |
| 2026-04-25 14:49 | 10.33702 | -60.77226 | 33990 ft | 489 kts | 323° |
| 2026-04-25 14:50 | 10.39256 | -60.81159 | 33992 ft | 489 kts | 323° |
| 2026-04-25 14:50 | 10.44843 | -60.85119 | 33990 ft | 489 kts | 323° |
| 2026-04-25 14:51 | 10.50432 | -60.89081 | 33992 ft | 490 kts | 323° |
| 2026-04-25 14:51 | 10.56000 | -60.93031 | 33990 ft | 490 kts | 323° |
| 2026-04-25 14:52 | 10.61597 | -60.97003 | 33991 ft | 490 kts | 323° |
| 2026-04-25 14:52 | 10.66252 | -61.00307 | 33990 ft | 490 kts | 323° |
| 2026-04-25 14:53 | 10.72753 | -61.04925 | 33990 ft | 490 kts | 323° |
| 2026-04-25 14:53 | 10.78349 | -61.08901 | 33989 ft | 490 kts | 323° |
| 2026-04-25 14:54 | 10.83951 | -61.12884 | 33987 ft | 490 kts | 323° |
| 2026-04-25 14:54 | 10.89502 | -61.16832 | 33989 ft | 490 kts | 323° |
| 2026-04-25 14:55 | 10.95088 | -61.20807 | 33990 ft | 490 kts | 323° |
| 2026-04-25 14:55 | 11.00670 | -61.24781 | 33989 ft | 489 kts | 323° |
| 2026-04-25 14:56 | 11.06269 | -61.28769 | 33989 ft | 489 kts | 323° |
| 2026-04-25 14:56 | 11.11811 | -61.32718 | 33989 ft | 489 kts | 323° |
| 2026-04-25 14:57 | 11.17392 | -61.36697 | 33989 ft | 489 kts | 323° |
| 2026-04-25 14:57 | 11.22969 | -61.40675 | 33991 ft | 489 kts | 323° |
| 2026-04-25 14:58 | 11.28517 | -61.44635 | 33990 ft | 489 kts | 323° |
| 2026-04-25 14:58 | 11.34091 | -61.48614 | 33988 ft | 489 kts | 323° |
| 2026-04-25 14:59 | 11.39662 | -61.52593 | 33988 ft | 488 kts | 322° |
| 2026-04-25 14:59 | 11.45207 | -61.56556 | 33991 ft | 488 kts | 322° |
| 2026-04-25 15:00 | 11.50775 | -61.60537 | 33990 ft | 488 kts | 322° |
| 2026-04-25 15:00 | 11.56343 | -61.64520 | 33989 ft | 488 kts | 322° |
| 2026-04-25 15:01 | 11.61867 | -61.68474 | 33991 ft | 487 kts | 322° |
| 2026-04-25 15:01 | 11.67426 | -61.72455 | 33991 ft | 487 kts | 322° |
| 2026-04-25 15:02 | 11.72986 | -61.76438 | 33981 ft | 487 kts | 322° |
| 2026-04-25 15:02 | 11.78530 | -61.80412 | 33991 ft | 489 kts | 322° |
| 2026-04-25 15:03 | 11.84085 | -61.84396 | 33989 ft | 489 kts | 322° |
| 2026-04-25 15:03 | 11.89659 | -61.88395 | 33991 ft | 489 kts | 322° |
| 2026-04-25 15:04 | 11.95237 | -61.92399 | 33990 ft | 489 kts | 322° |
| 2026-04-25 15:04 | 12.00812 | -61.96404 | 33989 ft | 489 kts | 322° |
| 2026-04-25 15:05 | 12.06342 | -62.00378 | 33989 ft | 489 kts | 322° |
| 2026-04-25 15:06 | 12.14706 | -62.06392 | 33991 ft | 489 kts | 322° |
| 2026-04-25 15:06 | 12.20287 | -62.10408 | 33991 ft | 489 kts | 322° |
| 2026-04-25 15:07 | 12.25821 | -62.14392 | 33996 ft | 489 kts | 322° |
| 2026-04-25 15:07 | 12.31391 | -62.18404 | 33988 ft | 489 kts | 322° |
| 2026-04-25 15:08 | 12.36949 | -62.22410 | 33993 ft | 489 kts | 322° |
| 2026-04-25 15:08 | 12.42493 | -62.26407 | 33990 ft | 489 kts | 322° |
| 2026-04-25 15:09 | 12.48054 | -62.30419 | 33990 ft | 489 kts | 322° |
| 2026-04-25 15:09 | 12.56406 | -62.36449 | 33986 ft | 489 kts | 322° |
| 2026-04-25 15:10 | 12.61962 | -62.40463 | 33990 ft | 488 kts | 322° |
| 2026-04-25 15:11 | 12.70254 | -62.46457 | 33989 ft | 488 kts | 322° |
| 2026-04-25 15:11 | 12.75814 | -62.50479 | 33989 ft | 488 kts | 321° |
| 2026-04-25 15:12 | 12.84114 | -62.56488 | 33987 ft | 488 kts | 321° |
| 2026-04-25 15:12 | 12.87824 | -62.59175 | 33990 ft | 488 kts | 321° |
| 2026-04-25 15:13 | 12.97990 | -62.66544 | 33992 ft | 487 kts | 321° |
| 2026-04-25 15:14 | 13.03495 | -62.70537 | 33989 ft | 487 kts | 321° |
| 2026-04-25 15:14 | 13.09040 | -62.74562 | 33990 ft | 488 kts | 321° |
| 2026-04-25 15:15 | 13.14587 | -62.78590 | 33990 ft | 487 kts | 321° |
| 2026-04-25 15:15 | 13.20127 | -62.82615 | 33990 ft | 487 kts | 321° |
| 2026-04-25 15:16 | 13.25630 | -62.86616 | 33991 ft | 487 kts | 321° |
| 2026-04-25 15:16 | 13.33933 | -62.92657 | 33989 ft | 487 kts | 321° |
| 2026-04-25 15:17 | 13.42237 | -62.98704 | 33989 ft | 487 kts | 321° |
| 2026-04-25 15:18 | 13.47741 | -63.02715 | 33989 ft | 487 kts | 321° |
| 2026-04-25 15:18 | 13.56051 | -63.08775 | 33988 ft | 487 kts | 321° |
| 2026-04-25 15:19 | 13.59719 | -63.11451 | 33989 ft | 487 kts | 321° |
| 2026-04-25 15:19 | 13.67087 | -63.16831 | 33990 ft | 488 kts | 321° |
| 2026-04-25 15:20 | 13.72626 | -63.20878 | 33990 ft | 487 kts | 321° |
| 2026-04-25 15:20 | 13.78162 | -63.24925 | 33991 ft | 487 kts | 321° |
| 2026-04-25 15:21 | 13.83693 | -63.28971 | 33988 ft | 488 kts | 321° |
| 2026-04-25 15:21 | 13.89230 | -63.33024 | 33990 ft | 488 kts | 321° |
| 2026-04-25 15:22 | 13.94733 | -63.37054 | 33988 ft | 487 kts | 321° |
| 2026-04-25 15:22 | 14.00260 | -63.41104 | 33990 ft | 487 kts | 321° |
| 2026-04-25 15:23 | 14.04868 | -63.44483 | 33983 ft | 487 kts | 320° |
| 2026-04-25 15:23 | 14.10385 | -63.48530 | 33981 ft | 487 kts | 320° |
| 2026-04-25 15:24 | 14.15906 | -63.52583 | 33981 ft | 487 kts | 320° |
| 2026-04-25 15:24 | 14.20501 | -63.55957 | 33980 ft | 487 kts | 320° |
| 2026-04-25 15:25 | 14.26918 | -63.60673 | 33980 ft | 487 kts | 320° |
| 2026-04-25 15:25 | 14.32433 | -63.64729 | 33981 ft | 487 kts | 320° |
| 2026-04-25 15:26 | 14.37964 | -63.68799 | 33981 ft | 487 kts | 320° |
| 2026-04-25 15:26 | 14.43455 | -63.72843 | 33980 ft | 487 kts | 320° |
| 2026-04-25 15:27 | 14.48973 | -63.76908 | 33982 ft | 487 kts | 320° |
| 2026-04-25 15:28 | 14.57240 | -63.83003 | 33980 ft | 486 kts | 320° |
| 2026-04-25 15:28 | 14.62723 | -63.87049 | 33992 ft | 486 kts | 320° |
| 2026-04-25 15:29 | 14.68222 | -63.91110 | 33991 ft | 486 kts | 320° |
| 2026-04-25 15:29 | 14.73725 | -63.95175 | 33988 ft | 485 kts | 320° |
| 2026-04-25 15:30 | 14.79217 | -63.99236 | 33991 ft | 484 kts | 320° |
| 2026-04-25 15:30 | 14.84706 | -64.03296 | 33989 ft | 483 kts | 320° |
| 2026-04-25 15:31 | 14.90137 | -64.07317 | 34008 ft | 482 kts | 320° |
| 2026-04-25 15:31 | 14.95603 | -64.11365 | 34008 ft | 482 kts | 320° |
| 2026-04-25 15:32 | 14.99343 | -64.14127 | 34008 ft | 482 kts | 322° |
| 2026-04-25 15:33 | 15.03142 | -64.16531 | 34019 ft | 484 kts | 324° |
| 2026-04-25 15:33 | 15.08872 | -64.20170 | 34010 ft | 487 kts | 323° |
| 2026-04-25 15:34 | 15.14633 | -64.23865 | 34009 ft | 487 kts | 323° |
| 2026-04-25 15:34 | 15.19450 | -64.26958 | 34006 ft | 486 kts | 323° |
| 2026-04-25 15:35 | 15.29001 | -64.33096 | 34007 ft | 485 kts | 323° |
| 2026-04-25 15:36 | 15.37582 | -64.38615 | 34007 ft | 485 kts | 323° |
| 2026-04-25 15:36 | 15.43327 | -64.42315 | 33999 ft | 485 kts | 323° |
| 2026-04-25 15:37 | 15.49053 | -64.46003 | 34001 ft | 485 kts | 323° |
| 2026-04-25 15:37 | 15.54773 | -64.49691 | 33997 ft | 484 kts | 323° |
| 2026-04-25 15:38 | 15.60490 | -64.53379 | 34007 ft | 484 kts | 323° |
| 2026-04-25 15:38 | 15.66208 | -64.57070 | 34008 ft | 484 kts | 323° |
| 2026-04-25 15:39 | 15.71923 | -64.60762 | 34009 ft | 484 kts | 323° |
| 2026-04-25 15:39 | 15.77642 | -64.64458 | 34006 ft | 484 kts | 323° |
| 2026-04-25 15:40 | 15.82387 | -64.67528 | 34008 ft | 484 kts | 322° |
| 2026-04-25 15:40 | 15.89037 | -64.71831 | 34010 ft | 484 kts | 322° |
| 2026-04-25 15:41 | 15.94736 | -64.75522 | 34008 ft | 483 kts | 322° |
| 2026-04-25 15:41 | 16.00442 | -64.79221 | 34008 ft | 483 kts | 322° |
| 2026-04-25 15:42 | 16.06132 | -64.82911 | 34008 ft | 481 kts | 322° |
| 2026-04-25 15:42 | 16.11813 | -64.86599 | 34007 ft | 481 kts | 322° |
| 2026-04-25 15:43 | 16.17484 | -64.90281 | 34006 ft | 481 kts | 322° |
| 2026-04-25 15:43 | 16.23161 | -64.93974 | 34010 ft | 481 kts | 322° |
| 2026-04-25 15:44 | 16.28805 | -64.97702 | 34008 ft | 480 kts | 321° |
| 2026-04-25 15:44 | 16.34440 | -65.01421 | 34008 ft | 479 kts | 321° |
| 2026-04-25 15:45 | 16.40077 | -65.05144 | 34010 ft | 480 kts | 321° |
| 2026-04-25 15:45 | 16.44758 | -65.08237 | 34010 ft | 480 kts | 321° |
| 2026-04-25 15:46 | 16.51348 | -65.12595 | 34011 ft | 480 kts | 321° |
| 2026-04-25 15:46 | 16.56939 | -65.16296 | 34008 ft | 479 kts | 321° |
| 2026-04-25 15:47 | 16.62562 | -65.20020 | 34007 ft | 479 kts | 321° |
| 2026-04-25 15:47 | 16.68182 | -65.23744 | 34008 ft | 478 kts | 321° |
| 2026-04-25 15:48 | 16.73803 | -65.27472 | 34009 ft | 479 kts | 321° |
| 2026-04-25 15:48 | 16.79421 | -65.31200 | 34005 ft | 478 kts | 321° |
| 2026-04-25 15:49 | 16.85022 | -65.34920 | 34005 ft | 478 kts | 321° |
| 2026-04-25 15:49 | 16.90623 | -65.38643 | 34021 ft | 478 kts | 321° |
| 2026-04-25 15:50 | 16.96222 | -65.42366 | 34016 ft | 477 kts | 321° |
| 2026-04-25 15:50 | 17.01817 | -65.46090 | 34020 ft | 476 kts | 320° |
| 2026-04-25 15:51 | 17.06454 | -65.49179 | 34021 ft | 476 kts | 320° |
| 2026-04-25 15:51 | 17.12983 | -65.53530 | 34020 ft | 475 kts | 320° |
| 2026-04-25 15:52 | 17.18556 | -65.57248 | 34021 ft | 475 kts | 320° |
| 2026-04-25 15:52 | 17.24113 | -65.60957 | 34011 ft | 474 kts | 320° |
| 2026-04-25 15:53 | 17.29675 | -65.64672 | 34011 ft | 474 kts | 320° |
| 2026-04-25 15:53 | 17.35218 | -65.68377 | 34002 ft | 473 kts | 320° |
| 2026-04-25 15:54 | 17.40762 | -65.72086 | 34001 ft | 472 kts | 320° |
| 2026-04-25 15:54 | 17.46290 | -65.75785 | 33998 ft | 471 kts | 319° |
| 2026-04-25 15:55 | 17.51692 | -65.79554 | 33997 ft | 469 kts | 317° |
| 2026-04-25 15:55 | 17.57106 | -65.83426 | 34004 ft | 468 kts | 317° |
| 2026-04-25 15:56 | 17.62448 | -65.87238 | 34006 ft | 467 kts | 317° |
| 2026-04-25 15:56 | 17.67818 | -65.91072 | 34008 ft | 467 kts | 317° |
| 2026-04-25 15:57 | 17.73189 | -65.94910 | 34011 ft | 467 kts | 317° |
| 2026-04-25 15:57 | 17.78542 | -65.98737 | 34008 ft | 466 kts | 317° |
| 2026-04-25 15:58 | 17.83898 | -66.02570 | 34009 ft | 466 kts | 317° |
| 2026-04-25 15:58 | 17.89244 | -66.06398 | 34006 ft | 465 kts | 317° |
| 2026-04-25 15:59 | 17.94586 | -66.10226 | 34001 ft | 465 kts | 317° |
| 2026-04-25 15:59 | 17.99934 | -66.14062 | 33999 ft | 465 kts | 317° |
| 2026-04-25 16:00 | 18.02609 | -66.15981 | 34001 ft | 465 kts | 317° |
| 2026-04-25 16:00 | 18.06824 | -66.19008 | 33999 ft | 465 kts | 317° |
| 2026-04-25 16:01 | 18.12168 | -66.22846 | 33992 ft | 465 kts | 317° |
| 2026-04-25 16:01 | 18.17497 | -66.26678 | 33998 ft | 464 kts | 317° |
| 2026-04-25 16:02 | 18.22839 | -66.30521 | 33992 ft | 465 kts | 317° |
| 2026-04-25 16:02 | 18.28182 | -66.34368 | 33988 ft | 465 kts | 317° |
| 2026-04-25 16:03 | 18.33513 | -66.38210 | 33990 ft | 464 kts | 317° |
| 2026-04-25 16:03 | 18.38845 | -66.42055 | 33986 ft | 464 kts | 317° |
| 2026-04-25 16:04 | 18.44164 | -66.45893 | 33987 ft | 464 kts | 317° |
| 2026-04-25 16:04 | 18.49482 | -66.49734 | 33980 ft | 464 kts | 317° |
| 2026-04-25 16:05 | 18.54775 | -66.53560 | 33980 ft | 464 kts | 317° |
| 2026-04-25 16:06 | 18.62749 | -66.59329 | 33980 ft | 463 kts | 317° |
| 2026-04-25 16:06 | 18.68066 | -66.63179 | 33984 ft | 463 kts | 317° |
| 2026-04-25 16:07 | 18.73369 | -66.67023 | 33979 ft | 462 kts | 317° |
| 2026-04-25 16:07 | 18.78670 | -66.70868 | 33990 ft | 462 kts | 317° |
| 2026-04-25 16:08 | 18.83968 | -66.74713 | 33990 ft | 462 kts | 317° |
| 2026-04-25 16:08 | 18.89267 | -66.78562 | 33990 ft | 462 kts | 317° |
| 2026-04-25 16:09 | 18.94565 | -66.82414 | 33992 ft | 462 kts | 317° |
| 2026-04-25 16:09 | 18.99853 | -66.86262 | 33990 ft | 462 kts | 317° |
| 2026-04-25 16:10 | 19.05150 | -66.90118 | 33987 ft | 462 kts | 317° |
| 2026-04-25 16:10 | 19.10442 | -66.93975 | 33983 ft | 462 kts | 317° |
| 2026-04-25 16:11 | 19.14836 | -66.97179 | 33982 ft | 462 kts | 317° |
| 2026-04-25 16:11 | 19.20117 | -67.01033 | 33979 ft | 461 kts | 317° |
| 2026-04-25 16:12 | 19.25398 | -67.04891 | 33979 ft | 461 kts | 317° |
| 2026-04-25 16:12 | 19.30672 | -67.08745 | 33980 ft | 461 kts | 317° |
| 2026-04-25 16:13 | 19.35946 | -67.12603 | 33983 ft | 461 kts | 317° |
| 2026-04-25 16:13 | 19.41223 | -67.16467 | 33981 ft | 461 kts | 317° |
| 2026-04-25 16:14 | 19.46499 | -67.20333 | 33980 ft | 461 kts | 317° |
| 2026-04-25 16:14 | 19.51778 | -67.24203 | 33981 ft | 460 kts | 317° |
| 2026-04-25 16:15 | 19.57044 | -67.28068 | 33981 ft | 460 kts | 317° |
| 2026-04-25 16:15 | 19.62309 | -67.31935 | 33979 ft | 460 kts | 317° |
| 2026-04-25 16:16 | 19.67573 | -67.35805 | 33981 ft | 460 kts | 317° |
| 2026-04-25 16:16 | 19.72840 | -67.39679 | 33980 ft | 460 kts | 317° |
| 2026-04-25 16:17 | 19.78066 | -67.43527 | 33980 ft | 460 kts | 317° |
| 2026-04-25 16:17 | 19.83316 | -67.47395 | 33980 ft | 459 kts | 317° |
| 2026-04-25 16:18 | 19.88566 | -67.51267 | 33980 ft | 460 kts | 317° |
| 2026-04-25 16:18 | 19.93824 | -67.55148 | 33983 ft | 460 kts | 317° |
| 2026-04-25 16:19 | 19.99074 | -67.59026 | 33980 ft | 460 kts | 317° |
| 2026-04-25 16:19 | 20.04332 | -67.62913 | 33980 ft | 460 kts | 317° |
| 2026-04-25 16:20 | 20.12209 | -67.68743 | 33981 ft | 460 kts | 317° |
| 2026-04-25 16:21 | 20.20092 | -67.74584 | 33981 ft | 460 kts | 317° |
| 2026-04-25 16:21 | 20.25351 | -67.78485 | 33981 ft | 460 kts | 317° |
| 2026-04-25 16:22 | 20.30599 | -67.82381 | 33981 ft | 460 kts | 317° |
| 2026-04-25 16:22 | 20.35848 | -67.86282 | 33972 ft | 460 kts | 317° |
| 2026-04-25 16:23 | 20.41100 | -67.90187 | 33972 ft | 460 kts | 317° |
| 2026-04-25 16:23 | 20.46345 | -67.94089 | 33973 ft | 460 kts | 317° |
| 2026-04-25 16:24 | 20.51588 | -67.97995 | 33964 ft | 460 kts | 317° |
| 2026-04-25 16:24 | 20.56805 | -68.01883 | 33962 ft | 461 kts | 317° |
| 2026-04-25 16:25 | 20.62049 | -68.05796 | 33960 ft | 459 kts | 317° |
| 2026-04-25 16:25 | 20.67293 | -68.09712 | 33962 ft | 460 kts | 317° |
| 2026-04-25 16:26 | 20.72661 | -68.13484 | 33967 ft | 465 kts | 322° |
| 2026-04-25 16:26 | 20.78204 | -68.17034 | 33961 ft | 464 kts | 321° |
| 2026-04-25 16:27 | 20.83728 | -68.20619 | 33963 ft | 465 kts | 321° |
| 2026-04-25 16:27 | 20.89251 | -68.24210 | 33958 ft | 464 kts | 321° |
| 2026-04-25 16:28 | 20.94779 | -68.27808 | 33960 ft | 465 kts | 321° |
| 2026-04-25 16:28 | 21.00312 | -68.31413 | 33961 ft | 466 kts | 321° |
| 2026-04-25 16:29 | 21.05846 | -68.35021 | 33960 ft | 465 kts | 321° |
| 2026-04-25 16:29 | 21.11385 | -68.38636 | 33958 ft | 466 kts | 321° |
| 2026-04-25 16:30 | 21.16888 | -68.42230 | 33950 ft | 466 kts | 321° |
| 2026-04-25 16:30 | 21.22423 | -68.45849 | 33954 ft | 466 kts | 321° |
| 2026-04-25 16:31 | 21.27974 | -68.49473 | 33949 ft | 469 kts | 322° |
| 2026-04-25 16:31 | 21.31008 | -68.50855 | 33949 ft | 484 kts | 338° |
| 2026-04-25 16:31 | 21.34388 | -68.51352 | 33959 ft | 498 kts | 353° |
| 2026-04-25 16:32 | 21.41170 | -68.52232 | 33959 ft | 489 kts | 341° |
| 2026-04-25 16:32 | 21.47929 | -68.53415 | 33957 ft | 494 kts | 344° |
| 2026-04-25 16:33 | 21.54728 | -68.54490 | 33969 ft | 494 kts | 344° |
| 2026-04-25 16:33 | 21.61530 | -68.55550 | 33970 ft | 494 kts | 344° |
| 2026-04-25 16:34 | 21.68338 | -68.56607 | 33972 ft | 494 kts | 344° |
| 2026-04-25 16:34 | 21.75154 | -68.57666 | 33990 ft | 495 kts | 344° |
| 2026-04-25 16:35 | 21.81979 | -68.58727 | 33991 ft | 495 kts | 344° |
| 2026-04-25 16:35 | 21.88796 | -68.59787 | 33975 ft | 495 kts | 344° |
| 2026-04-25 16:36 | 21.95613 | -68.60849 | 33971 ft | 495 kts | 344° |
| 2026-04-25 16:36 | 22.02428 | -68.61912 | 33973 ft | 495 kts | 345° |
| 2026-04-25 16:37 | 22.09213 | -68.62970 | 33970 ft | 496 kts | 345° |
| 2026-04-25 16:37 | 22.16056 | -68.64039 | 33971 ft | 496 kts | 345° |
| 2026-04-25 16:38 | 22.22893 | -68.65108 | 33973 ft | 496 kts | 345° |
| 2026-04-25 16:38 | 22.29733 | -68.66178 | 33974 ft | 496 kts | 345° |
| 2026-04-25 16:39 | 22.36567 | -68.67249 | 33970 ft | 496 kts | 345° |
| 2026-04-25 16:39 | 22.43402 | -68.68320 | 33971 ft | 496 kts | 345° |
| 2026-04-25 16:40 | 22.50206 | -68.69388 | 33976 ft | 496 kts | 345° |
| 2026-04-25 16:40 | 22.57035 | -68.70461 | 33972 ft | 496 kts | 345° |
| 2026-04-25 16:41 | 22.63866 | -68.71536 | 33965 ft | 495 kts | 345° |
| 2026-04-25 16:41 | 22.74059 | -68.73141 | 33971 ft | 495 kts | 345° |
| 2026-04-25 16:42 | 22.80876 | -68.74216 | 33973 ft | 495 kts | 345° |
| 2026-04-25 16:42 | 22.87702 | -68.75293 | 33972 ft | 495 kts | 345° |
| 2026-04-25 16:43 | 22.94526 | -68.76372 | 33970 ft | 495 kts | 345° |
| 2026-04-25 16:43 | 23.01307 | -68.77444 | 33973 ft | 495 kts | 345° |
| 2026-04-25 16:44 | 23.08126 | -68.78523 | 33974 ft | 495 kts | 345° |
| 2026-04-25 16:44 | 23.14945 | -68.79604 | 33971 ft | 495 kts | 345° |
| 2026-04-25 16:45 | 23.21774 | -68.80687 | 33975 ft | 495 kts | 345° |
| 2026-04-25 16:45 | 23.28560 | -68.81765 | 33973 ft | 496 kts | 345° |
| 2026-04-25 16:46 | 23.35389 | -68.82851 | 33970 ft | 495 kts | 345° |
| 2026-04-25 16:46 | 23.39949 | -68.83576 | 33961 ft | 496 kts | 345° |